Time;durP1;ratioP1;P1;durP2;ratioP2;P2;SDS_P1;SDS_P2;PMS_P1;PMS_P2;Temp;Humidity;BMP_temperature;BMP_pressure;BME280_temperature;BME280_humidity;BME280_pressure;Samples;Min_cycle;Max_cycle;Signal;HPM_P1;HPM_P2
2022/12/26 00:00:30;;;;;;;3.33;2.80;;;10.50;99.90;;;;;;4995094;28;20425;-64
2022/12/26 00:02:57;;;;;;;3.42;3.13;;;10.50;99.90;;;;;;4995402;28;20423;-60
2022/12/26 00:05:24;;;;;;;3.10;2.80;;;10.50;99.90;;;;;;4998589;28;20415;-61
2022/12/26 00:07:52;;;;;;;3.20;2.90;;;10.50;99.90;;;;;;4993742;28;20418;-61
2022/12/26 00:10:19;;;;;;;3.00;2.70;;;10.50;99.90;;;;;;4992647;28;20419;-61
2022/12/26 00:12:46;;;;;;;3.35;3.00;;;10.50;99.90;;;;;;4992502;28;20423;-61
2022/12/26 00:15:12;;;;;;;3.50;3.20;;;10.50;99.90;;;;;;4994972;28;20430;-61
2022/12/26 00:17:39;;;;;;;3.47;3.17;;;10.50;99.90;;;;;;4994133;28;20426;-59
2022/12/26 00:20:07;;;;;;;4.10;3.70;;;10.50;99.90;;;;;;4991912;28;20425;-61
2022/12/26 00:22:34;;;;;;;4.53;3.95;;;10.50;99.90;;;;;;4991868;28;20418;-61
2022/12/26 00:25:02;;;;;;;4.43;4.03;;;10.50;99.90;;;;;;4991205;28;20441;-60
2022/12/26 00:27:29;;;;;;;4.90;4.40;;;10.50;99.90;;;;;;4995155;28;20780;-60
2022/12/26 00:29:55;;;;;;;5.32;4.82;;;10.50;99.90;;;;;;4995306;28;20418;-61
2022/12/26 00:32:22;;;;;;;4.90;4.40;;;10.40;99.90;;;;;;4995220;28;20467;-61
2022/12/26 00:34:49;;;;;;;6.05;5.00;;;10.40;99.90;;;;;;5000562;28;20425;-60
2022/12/26 00:37:16;;;;;;;6.38;5.40;;;10.50;99.90;;;;;;4997280;28;20426;-61
2022/12/26 00:39:42;;;;;;;5.60;5.10;;;10.40;99.90;;;;;;4997761;28;20419;-61
2022/12/26 00:42:10;;;;;;;5.60;5.10;;;10.40;99.90;;;;;;4996751;28;20426;-61
2022/12/26 00:44:37;;;;;;;5.43;4.55;;;10.40;99.90;;;;;;4996436;28;20423;-62
2022/12/26 00:47:04;;;;;;;4.65;4.25;;;10.40;99.90;;;;;;4995632;28;20427;-61
2022/12/26 00:49:31;;;;;;;4.70;4.30;;;10.50;99.90;;;;;;4997264;28;20414;-62
2022/12/26 00:51:58;;;;;;;4.95;4.55;;;10.50;99.90;;;;;;4997242;28;20417;-62
2022/12/26 00:54:24;;;;;;;4.90;4.40;;;10.40;99.90;;;;;;4996166;28;20422;-61
2022/12/26 00:56:51;;;;;;;4.72;4.03;;;10.40;99.90;;;;;;4996876;28;20433;-61
2022/12/26 00:59:19;;;;;;;4.53;4.13;;;10.40;99.90;;;;;;4995180;28;20748;-60
2022/12/26 01:01:46;;;;;;;4.75;4.35;;;10.50;99.90;;;;;;4993778;28;20423;-61
2022/12/26 01:04:13;;;;;;;4.50;4.10;;;10.40;99.90;;;;;;4993719;28;20426;-62
2022/12/26 01:06:39;;;;;;;4.90;4.30;;;10.40;99.90;;;;;;4992831;28;20871;-61
2022/12/26 01:09:06;;;;;;;4.90;4.40;;;10.50;99.90;;;;;;4993436;28;20418;-60
2022/12/26 01:11:42;;;;;;;5.03;4.53;;;10.40;99.90;;;;;;4993286;28;20441;-62
2022/12/26 01:14:10;;;;;;;5.60;4.60;;;10.40;99.90;;;;;;4992861;28;20444;-61
2022/12/26 01:16:39;;;;;;;5.10;4.60;;;10.40;99.90;;;;;;4993137;28;20442;-61
2022/12/26 01:19:07;;;;;;;7.30;5.57;;;10.40;99.90;;;;;;4992755;28;20466;-60
2022/12/26 01:21:33;;;;;;;7.22;6.00;;;10.40;99.90;;;;;;4992839;28;20419;-61
2022/12/26 01:24:00;;;;;;;8.23;7.43;;;10.40;99.90;;;;;;4992683;28;20989;-61
2022/12/26 01:26:27;;;;;;;10.30;7.53;;;10.40;99.90;;;;;;4993010;28;20422;-61
2022/12/26 01:28:54;;;;;;;10.57;9.40;;;10.40;99.90;;;;;;4993139;28;20422;-61
2022/12/26 01:31:22;;;;;;;12.15;10.70;;;10.40;99.90;;;;;;4993326;28;20449;-61
2022/12/26 01:33:50;;;;;;;13.67;11.07;;;10.40;99.90;;;;;;4993487;28;20418;-61
2022/12/26 01:36:18;;;;;;;13.87;11.93;;;10.40;99.90;;;;;;4993667;28;20435;-62
2022/12/26 01:38:45;;;;;;;13.48;11.20;;;10.30;99.90;;;;;;4992372;28;20438;-62
2022/12/26 01:41:18;;;;;;;12.50;10.85;;;10.30;99.90;;;;;;4992606;28;20414;-61
2022/12/26 01:43:56;;;;;;;13.43;10.75;;;10.20;99.90;;;;;;4992934;28;20422;-62
2022/12/26 01:46:29;;;;;;;11.93;10.57;;;10.20;99.90;;;;;;4992581;28;20910;-62
2022/12/26 01:49:01;;;;;;;11.93;10.18;;;10.20;99.90;;;;;;4992172;28;20751;-62
2022/12/26 01:51:33;;;;;;;14.07;11.57;;;10.10;99.90;;;;;;4992429;28;20422;-61
2022/12/26 01:54:02;;;;;;;12.60;10.68;;;10.10;99.90;;;;;;4992136;28;20415;-61
2022/12/26 01:56:34;;;;;;;10.18;9.05;;;10.00;99.90;;;;;;4992430;28;20500;-61
2022/12/26 01:59:06;;;;;;;11.18;8.90;;;10.00;99.90;;;;;;4991919;28;20891;-62
2022/12/26 02:01:37;;;;;;;10.60;8.77;;;10.00;99.90;;;;;;4992775;28;20411;-62
2022/12/26 02:07:04;;;;;;;11.25;8.93;;;9.90;99.90;;;;;;4951642;29;20487;-60
2022/12/26 02:09:32;;;;;;;12.75;9.18;;;9.80;99.90;;;;;;4982291;28;20429;-61
2022/12/26 02:12:04;;;;;;;10.82;8.55;;;9.80;99.90;;;;;;4991861;28;20426;-61
2022/12/26 02:14:33;;;;;;;14.00;9.02;;;9.80;99.90;;;;;;4991302;28;20840;-61
2022/12/26 02:16:59;;;;;;;11.80;8.80;;;9.70;99.90;;;;;;4991560;28;20437;-61
2022/12/26 02:19:36;;;;;;;11.63;8.80;;;9.70;99.90;;;;;;4991614;28;20426;-61
2022/12/26 02:22:20;;;;;;;12.18;9.02;;;9.70;99.90;;;;;;4991664;28;20422;-61
2022/12/26 02:25:12;;;;;;;11.23;9.18;;;9.70;99.90;;;;;;4991151;28;20425;-61
2022/12/26 02:27:52;;;;;;;11.95;9.20;;;9.70;99.90;;;;;;4991399;28;20430;-61
2022/12/26 02:30:41;;;;;;;12.93;9.00;;;9.70;99.90;;;;;;4991324;28;20418;-61
2022/12/26 02:33:23;;;;;;;13.38;9.38;;;9.70;99.90;;;;;;4991320;28;20415;-63
2022/12/26 02:36:05;;;;;;;12.65;9.77;;;9.70;99.90;;;;;;4990812;28;20434;-62
2022/12/26 02:38:39;;;;;;;13.60;9.77;;;9.70;99.90;;;;;;4990916;28;20797;-62
2022/12/26 02:41:20;;;;;;;14.07;10.10;;;9.70;99.90;;;;;;4991532;28;20434;-62
2022/12/26 02:43:54;;;;;;;14.00;10.07;;;9.70;99.90;;;;;;4991431;28;20418;-61
2022/12/26 02:49:21;;;;;;;14.80;10.60;;;9.70;99.90;;;;;;4990342;28;20402;-61
2022/12/26 03:14:25;;;;;;;13.93;10.02;;;9.70;99.90;;;;;;4991119;28;20406;-61
2022/12/26 03:17:18;;;;;;;15.13;11.40;;;9.70;99.90;;;;;;4990895;28;20438;-61
2022/12/26 03:20:01;;;;;;;13.93;11.20;;;9.70;99.90;;;;;;4990813;28;20410;-62
2022/12/26 03:22:34;;;;;;;16.77;11.35;;;9.70;99.90;;;;;;4990957;28;20487;-62
2022/12/26 03:27:50;;;;;;;14.00;10.52;;;9.70;99.90;;;;;;4991294;28;20465;-62
2022/12/26 03:33:01;;;;;;;14.45;10.65;;;9.70;99.90;;;;;;4991418;28;20422;-61
2022/12/26 03:35:32;;;;;;;14.20;11.38;;;9.70;99.90;;;;;;4991215;28;20498;-61
2022/12/26 03:38:04;;;;;;;14.00;10.60;;;9.70;99.90;;;;;;4991311;28;20401;-62
2022/12/26 04:19:41;;;;;;;11.23;10.03;;;9.80;99.90;;;;;;5090496;28;20817;-62
2022/12/26 04:44:35;;;;;;;12.45;11.10;;;9.90;99.90;;;;;;5068812;28;20900;-59
2022/12/26 04:47:01;;;;;;;13.38;11.30;;;9.90;99.90;;;;;;5068589;28;20527;-59
2022/12/26 04:52:14;;;;;;;11.73;10.52;;;9.90;99.90;;;;;;5069059;28;20440;-59
2022/12/26 04:54:42;;;;;;;11.38;9.75;;;9.90;99.90;;;;;;5068526;28;20432;-59
2022/12/26 04:57:08;;;;;;;11.30;10.10;;;9.90;99.90;;;;;;5068666;28;20413;-60
2022/12/26 04:59:37;;;;;;;11.40;10.23;;;9.90;99.90;;;;;;5068449;28;20420;-60
2022/12/26 05:10:28;;;;;;;9.77;8.77;;;9.90;99.90;;;;;;5060885;28;20443;-59
2022/12/26 05:12:55;;;;;;;8.80;7.90;;;9.90;99.90;;;;;;5068405;28;20413;-58
2022/12/26 05:15:24;;;;;;;7.80;6.90;;;9.90;99.90;;;;;;5067699;28;20423;-59
2022/12/26 05:29:12;;;;;;;6.50;5.80;;;9.90;99.90;;;;;;4993170;28;20422;-59
2022/12/26 05:31:40;;;;;;;6.50;5.47;;;9.90;99.90;;;;;;4992770;28;20422;-59
2022/12/26 05:34:06;;;;;;;7.75;6.75;;;9.90;99.90;;;;;;4992836;28;20948;-59
2022/12/26 05:36:37;;;;;;;6.85;6.15;;;9.90;99.90;;;;;;4992864;28;20505;-59
2022/12/26 05:39:04;;;;;;;6.97;6.00;;;9.90;99.90;;;;;;4992726;28;20414;-59
2022/12/26 05:41:31;;;;;;;7.00;6.30;;;9.80;99.90;;;;;;5044159;28;20433;-58
2022/12/26 05:43:58;;;;;;;6.70;6.00;;;9.80;99.90;;;;;;5054094;28;20421;-60
2022/12/26 05:46:25;;;;;;;7.30;6.50;;;9.80;99.90;;;;;;5053984;28;20420;-60
2022/12/26 05:48:53;;;;;;;6.50;5.90;;;9.80;99.90;;;;;;5053994;28;20428;-60
2022/12/26 05:51:20;;;;;;;7.00;6.30;;;9.70;99.90;;;;;;5053960;28;20424;-59
2022/12/26 05:53:47;;;;;;;7.85;6.70;;;9.70;99.90;;;;;;5053650;28;20414;-59
2022/12/26 05:56:16;;;;;;;7.55;6.28;;;9.70;99.90;;;;;;5053703;28;20413;-58
2022/12/26 05:58:43;;;;;;;6.65;5.93;;;9.80;99.90;;;;;;5054032;28;20417;-59
2022/12/26 06:01:11;;;;;;;7.43;6.40;;;9.70;99.90;;;;;;5054039;28;20417;-58
2022/12/26 06:03:40;;;;;;;6.47;5.60;;;9.70;99.90;;;;;;5053893;28;20421;-59
2022/12/26 06:06:08;;;;;;;6.50;5.32;;;9.80;99.90;;;;;;5054060;28;20503;-58
2022/12/26 06:08:36;;;;;;;6.10;5.28;;;9.70;99.90;;;;;;5053953;28;20417;-59
2022/12/26 06:11:06;;;;;;;5.95;5.35;;;9.70;99.90;;;;;;5054239;28;20432;-58
2022/12/26 06:13:34;;;;;;;5.20;4.70;;;9.70;99.90;;;;;;5053736;28;20420;-58
2022/12/26 06:16:05;;;;;;;6.23;4.87;;;9.80;99.90;;;;;;5053694;28;20417;-58
2022/12/26 06:18:32;;;;;;;6.15;4.60;;;9.70;99.90;;;;;;5053896;28;20428;-58
2022/12/26 06:20:58;;;;;;;5.65;5.00;;;9.70;99.90;;;;;;5053576;28;20474;-58
2022/12/26 06:23:26;;;;;;;6.40;5.25;;;9.70;99.90;;;;;;5053571;28;20782;-58
2022/12/26 06:25:55;;;;;;;5.60;5.00;;;9.70;99.90;;;;;;5054225;28;20768;-58
2022/12/26 06:28:22;;;;;;;5.20;4.70;;;9.70;99.90;;;;;;5053519;28;20464;-58
2022/12/26 06:30:48;;;;;;;6.53;5.45;;;9.60;99.90;;;;;;5053476;28;20793;-57
2022/12/26 06:33:15;;;;;;;7.10;5.45;;;9.60;99.90;;;;;;5052711;28;20418;-57
2022/12/26 06:35:42;;;;;;;6.55;5.80;;;9.50;99.90;;;;;;5053821;28;20447;-58
2022/12/26 06:38:09;;;;;;;7.17;6.20;;;9.50;99.90;;;;;;5053884;28;20406;-58
2022/12/26 06:40:40;;;;;;;9.27;6.70;;;9.50;99.90;;;;;;5054717;28;20416;-58
2022/12/26 06:43:07;;;;;;;8.27;6.43;;;9.40;99.90;;;;;;5054844;28;20404;-59
2022/12/26 06:45:33;;;;;;;8.30;6.38;;;9.40;99.90;;;;;;5055386;28;20413;-59
2022/12/26 06:48:00;;;;;;;8.35;6.70;;;9.40;99.90;;;;;;5053512;28;20916;-58
2022/12/26 06:50:27;;;;;;;7.13;6.20;;;9.30;99.90;;;;;;5052665;28;20919;-57
2022/12/26 06:52:54;;;;;;;8.23;7.00;;;9.30;99.90;;;;;;5053097;28;20413;-59
2022/12/26 06:55:21;;;;;;;8.00;6.82;;;9.30;99.90;;;;;;5053199;28;20791;-58
2022/12/26 06:57:51;;;;;;;7.83;7.00;;;9.30;99.90;;;;;;5053875;28;20499;-58
2022/12/26 07:00:18;;;;;;;8.48;7.30;;;9.30;99.90;;;;;;5053138;28;20421;-58
2022/12/26 07:02:50;;;;;;;8.98;7.20;;;9.30;99.90;;;;;;5053202;28;20436;-58
2022/12/26 07:05:16;;;;;;;9.10;7.10;;;9.30;99.90;;;;;;5055175;28;20520;-58
2022/12/26 07:07:43;;;;;;;9.30;7.50;;;9.30;99.90;;;;;;5052523;28;20470;-58
2022/12/26 07:10:10;;;;;;;10.73;7.65;;;9.30;99.90;;;;;;5052299;28;20436;-58
2022/12/26 07:12:37;;;;;;;8.60;7.10;;;9.30;99.90;;;;;;5052728;28;20429;-57
2022/12/26 07:15:08;;;;;;;9.30;8.05;;;9.30;99.90;;;;;;5052687;28;20413;-57
2022/12/26 07:17:35;;;;;;;8.60;7.45;;;9.30;99.90;;;;;;5052584;28;20487;-58
2022/12/26 07:20:02;;;;;;;9.68;7.30;;;9.20;99.90;;;;;;5052648;28;20416;-58
2022/12/26 07:22:29;;;;;;;9.40;7.60;;;9.20;99.90;;;;;;5052156;28;20419;-59
2022/12/26 07:24:56;;;;;;;10.38;8.60;;;9.20;99.90;;;;;;5052239;28;20547;-60
2022/12/26 07:27:23;;;;;;;9.70;7.85;;;9.10;99.90;;;;;;5052325;28;20435;-59
2022/12/26 07:29:49;;;;;;;13.38;8.18;;;9.10;99.90;;;;;;5052391;28;20433;-60
2022/12/26 07:32:17;;;;;;;9.32;7.88;;;9.00;99.90;;;;;;5051925;28;20424;-59
2022/12/26 07:34:44;;;;;;;10.23;8.32;;;9.00;99.90;;;;;;5052204;28;20417;-59
2022/12/26 07:37:11;;;;;;;10.97;8.60;;;9.00;99.90;;;;;;5052291;28;20413;-59
2022/12/26 07:39:38;;;;;;;9.90;8.20;;;9.00;99.90;;;;;;5052121;28;20425;-58
2022/12/26 07:42:05;;;;;;;10.55;8.57;;;8.90;99.90;;;;;;5052460;28;20417;-58
2022/12/26 07:44:32;;;;;;;11.30;8.85;;;8.90;99.90;;;;;;5051652;28;20413;-60
2022/12/26 07:47:00;;;;;;;9.98;8.70;;;8.90;99.90;;;;;;5051840;28;20893;-59
2022/12/26 07:49:28;;;;;;;10.32;8.20;;;8.90;99.90;;;;;;5052162;28;20421;-59
2022/12/26 07:51:55;;;;;;;10.98;9.00;;;8.90;99.90;;;;;;5052267;28;20417;-60
2022/12/26 07:54:22;;;;;;;10.67;8.40;;;8.90;99.90;;;;;;5051826;28;20413;-59
2022/12/26 07:56:49;;;;;;;10.85;8.85;;;8.90;99.90;;;;;;5052329;28;20463;-58
2022/12/26 07:59:17;;;;;;;11.10;9.07;;;8.90;99.90;;;;;;5051701;28;20413;-59
2022/12/26 08:01:44;;;;;;;11.32;9.00;;;8.90;99.90;;;;;;5052231;28;20409;-59
2022/12/26 08:04:11;;;;;;;11.55;9.13;;;8.90;99.90;;;;;;5051647;28;20413;-60
2022/12/26 08:06:39;;;;;;;10.52;8.98;;;8.90;99.90;;;;;;5051892;28;20802;-58
2022/12/26 08:09:06;;;;;;;11.23;9.02;;;8.90;99.90;;;;;;5051897;28;20417;-58
2022/12/26 08:11:34;;;;;;;11.88;9.30;;;8.90;99.90;;;;;;5051586;28;20433;-60
2022/12/26 08:14:01;;;;;;;11.57;9.40;;;9.00;99.90;;;;;;5051957;28;20417;-58
2022/12/26 08:16:29;;;;;;;11.32;9.30;;;9.00;99.90;;;;;;5051465;28;20413;-59
2022/12/26 08:18:56;;;;;;;11.38;9.45;;;9.00;99.90;;;;;;5051837;28;20413;-58
2022/12/26 08:21:23;;;;;;;11.50;9.45;;;9.00;99.90;;;;;;5053405;28;20409;-59
2022/12/26 08:23:51;;;;;;;11.55;9.80;;;9.00;99.90;;;;;;5052647;28;20417;-60
2022/12/26 08:26:21;;;;;;;11.07;9.75;;;9.10;99.90;;;;;;5052720;28;20424;-60
2022/12/26 08:28:49;;;;;;;10.73;9.43;;;9.10;99.90;;;;;;5056240;28;20511;-60
2022/12/26 08:31:17;;;;;;;9.70;8.70;;;9.20;99.90;;;;;;5056767;28;20429;-59
2022/12/26 08:33:44;;;;;;;9.93;8.50;;;9.20;99.90;;;;;;5054693;28;20433;-61
2022/12/26 08:36:12;;;;;;;13.60;9.07;;;9.20;99.90;;;;;;5038085;28;20431;-59
2022/12/26 08:38:39;;;;;;;11.85;9.30;;;9.30;99.90;;;;;;5036029;28;20423;-59
2022/12/26 08:41:08;;;;;;;10.77;9.40;;;9.30;99.90;;;;;;5033405;28;20415;-60
2022/12/26 08:43:35;;;;;;;10.40;8.80;;;9.30;99.90;;;;;;5034272;28;20422;-58
2022/12/26 08:46:04;;;;;;;10.35;8.43;;;9.40;99.90;;;;;;5035119;28;20426;-57
2022/12/26 08:48:32;;;;;;;11.05;8.70;;;9.40;99.90;;;;;;5034193;28;20423;-59
2022/12/26 08:51:00;;;;;;;10.13;9.02;;;9.40;99.90;;;;;;5043559;28;20420;-58
2022/12/26 08:53:29;;;;;;;10.77;8.17;;;9.40;99.90;;;;;;5059496;28;20519;-57
2022/12/26 08:55:56;;;;;;;9.82;8.00;;;9.50;99.90;;;;;;5070904;28;20433;-60
2022/12/26 08:58:24;;;;;;;9.60;8.13;;;9.50;99.90;;;;;;5055727;28;20436;-59
2022/12/26 09:00:51;;;;;;;8.32;7.30;;;9.50;99.90;;;;;;5055284;28;20413;-58
2022/12/26 09:03:18;;;;;;;9.60;8.00;;;9.50;99.90;;;;;;5055842;28;20921;-59
2022/12/26 09:05:45;;;;;;;8.95;7.13;;;9.50;99.90;;;;;;5056577;28;20420;-59
2022/12/26 09:08:12;;;;;;;8.32;7.43;;;9.50;99.90;;;;;;5057009;28;20413;-58
2022/12/26 09:10:39;;;;;;;9.57;7.25;;;9.60;99.90;;;;;;5058102;28;20794;-60
2022/12/26 09:13:06;;;;;;;7.65;6.40;;;9.60;99.90;;;;;;5056951;28;20413;-59
2022/12/26 09:15:34;;;;;;;6.50;5.80;;;9.60;99.90;;;;;;5055949;28;20421;-58
2022/12/26 09:18:00;;;;;;;7.70;6.60;;;9.70;99.90;;;;;;5056979;28;20412;-59
2022/12/26 09:20:27;;;;;;;7.60;6.65;;;9.70;99.90;;;;;;5057094;28;20417;-58
2022/12/26 09:22:54;;;;;;;7.80;6.78;;;9.70;99.90;;;;;;5056681;28;20770;-58
2022/12/26 09:25:23;;;;;;;7.78;6.97;;;9.70;99.90;;;;;;5055626;28;20417;-57
2022/12/26 09:27:52;;;;;;;7.00;6.15;;;9.70;99.90;;;;;;5056931;28;20413;-59
2022/12/26 09:30:20;;;;;;;7.20;6.50;;;9.80;99.90;;;;;;5057464;28;20471;-59
2022/12/26 09:32:49;;;;;;;6.68;5.90;;;9.80;99.90;;;;;;5055788;28;20421;-59
2022/12/26 09:35:15;;;;;;;6.80;6.20;;;9.80;99.90;;;;;;5054796;28;20508;-60
2022/12/26 09:37:42;;;;;;;7.25;5.80;;;9.80;99.90;;;;;;5054373;28;20425;-59
2022/12/26 09:40:20;;;;;;;7.30;6.60;;;9.90;99.90;;;;;;5054392;28;20775;-60
2022/12/26 09:42:58;;;;;;;6.60;6.00;;;9.90;99.90;;;;;;5054602;28;20417;-59
2022/12/26 09:45:34;;;;;;;6.53;5.83;;;9.90;99.90;;;;;;5054244;28;20533;-59
2022/12/26 09:48:13;;;;;;;7.00;6.30;;;10.00;99.90;;;;;;5054293;28;20421;-58
2022/12/26 09:50:45;;;;;;;6.57;5.90;;;10.00;99.90;;;;;;5054212;28;20433;-60
2022/12/26 09:53:16;;;;;;;7.68;6.40;;;10.10;99.90;;;;;;5054728;28;20409;-60
2022/12/26 09:55:50;;;;;;;7.53;6.50;;;10.10;99.90;;;;;;5054158;28;20417;-60
2022/12/26 09:58:24;;;;;;;7.20;6.50;;;10.10;99.90;;;;;;5054052;28;20413;-60
2022/12/26 10:00:52;;;;;;;8.05;6.70;;;10.10;99.90;;;;;;5054050;28;20424;-58
2022/12/26 10:03:23;;;;;;;7.20;6.50;;;10.20;99.90;;;;;;5053714;28;20470;-58
2022/12/26 10:06:03;;;;;;;7.85;6.68;;;10.20;99.90;;;;;;5054398;28;20425;-58
2022/12/26 10:08:53;;;;;;;7.20;6.50;;;10.20;99.90;;;;;;5053796;28;20417;-58
2022/12/26 10:11:28;;;;;;;7.72;6.93;;;10.30;99.90;;;;;;5054020;28;20425;-58
2022/12/26 10:13:59;;;;;;;8.10;7.30;;;10.30;99.90;;;;;;5054031;28;20409;-59
2022/12/26 10:16:42;;;;;;;7.90;7.10;;;10.40;99.90;;;;;;5053999;28;20420;-59
2022/12/26 10:19:25;;;;;;;7.60;6.90;;;10.40;99.90;;;;;;5053848;28;20424;-60
2022/12/26 10:22:03;;;;;;;9.65;7.78;;;10.50;99.90;;;;;;5053874;28;20409;-58
2022/12/26 10:24:33;;;;;;;7.00;6.40;;;10.50;99.90;;;;;;5053181;28;20915;-59
2022/12/26 10:27:03;;;;;;;10.00;7.47;;;10.50;99.90;;;;;;5055292;28;20421;-59
2022/12/26 10:29:33;;;;;;;7.65;6.95;;;10.50;99.90;;;;;;5053541;28;20413;-60
2022/12/26 10:32:03;;;;;;;7.15;6.38;;;10.60;99.90;;;;;;5053730;28;20432;-59
2022/12/26 10:34:36;;;;;;;7.82;7.03;;;10.60;99.90;;;;;;5053504;28;20515;-60
2022/12/26 10:37:10;;;;;;;7.90;6.53;;;10.60;99.90;;;;;;5053792;28;20436;-60
2022/12/26 10:39:42;;;;;;;7.75;7.05;;;10.70;99.90;;;;;;5053769;28;20405;-58
2022/12/26 10:42:21;;;;;;;7.75;6.47;;;10.70;99.90;;;;;;5054033;28;20500;-59
2022/12/26 10:44:48;;;;;;;7.13;6.45;;;10.80;99.90;;;;;;5053814;28;20424;-60
2022/12/26 10:47:23;;;;;;;7.30;6.60;;;10.80;99.90;;;;;;5053625;28;20913;-58
2022/12/26 10:49:51;;;;;;;7.35;6.63;;;10.80;99.90;;;;;;5053431;28;20424;-59
2022/12/26 10:52:22;;;;;;;6.82;6.20;;;10.80;99.90;;;;;;5052834;28;20429;-58
2022/12/26 10:54:54;;;;;;;7.38;6.68;;;10.80;99.90;;;;;;5052879;28;20428;-59
2022/12/26 10:57:22;;;;;;;6.68;6.07;;;10.70;99.90;;;;;;5053200;28;20504;-60
2022/12/26 10:59:52;;;;;;;8.20;6.10;;;10.70;99.90;;;;;;5052956;28;20786;-59
2022/12/26 11:02:24;;;;;;;6.50;5.90;;;10.70;99.90;;;;;;5053968;28;20421;-58
2022/12/26 11:05:01;;;;;;;7.25;6.55;;;10.70;99.90;;;;;;5055837;28;20891;-58
2022/12/26 11:07:31;;;;;;;8.50;6.50;;;10.70;99.90;;;;;;5053991;28;20425;-58
2022/12/26 11:09:59;;;;;;;7.20;6.50;;;10.70;99.90;;;;;;5053477;28;20417;-58
2022/12/26 11:12:32;;;;;;;6.73;6.13;;;10.80;99.90;;;;;;5053406;28;20453;-58
2022/12/26 11:15:01;;;;;;;6.72;5.88;;;10.80;99.90;;;;;;5053483;28;20418;-59
2022/12/26 11:17:31;;;;;;;5.70;5.20;;;10.80;99.90;;;;;;5053048;28;20524;-59
2022/12/26 11:20:24;;;;;;;7.23;6.53;;;10.80;99.90;;;;;;5053548;28;20901;-60
2022/12/26 11:22:51;;;;;;;5.93;5.32;;;10.70;99.90;;;;;;5056502;28;20416;-58
2022/12/26 11:25:22;;;;;;;6.60;5.90;;;10.70;99.90;;;;;;5053356;28;20889;-59
2022/12/26 11:27:51;;;;;;;6.95;6.20;;;10.70;99.90;;;;;;5052556;28;20421;-60
2022/12/26 11:30:25;;;;;;;6.00;5.50;;;10.70;99.90;;;;;;5052502;28;20418;-57
2022/12/26 11:33:16;;;;;;;9.52;7.82;;;10.70;99.90;;;;;;5049935;28;20928;-59
2022/12/26 11:35:50;;;;;;;6.07;5.47;;;10.80;99.90;;;;;;5052696;28;20413;-58
2022/12/26 11:41:35;;;;;;;5.55;5.05;;;10.90;99.90;;;;;;5090298;28;20346;-57
2022/12/26 11:44:16;;;;;;;6.93;4.90;;;11.00;99.90;;;;;;5089961;28;20458;-59
2022/12/26 11:46:46;;;;;;;7.63;5.80;;;11.10;99.90;;;;;;5088943;28;20423;-58
2022/12/26 11:49:20;;;;;;;6.78;5.50;;;11.10;99.90;;;;;;5089282;28;20899;-60
2022/12/26 11:51:49;;;;;;;6.80;5.90;;;11.10;99.90;;;;;;5089485;28;20419;-59
2022/12/26 11:54:26;;;;;;;6.80;6.20;;;11.10;99.90;;;;;;5089091;28;20419;-60
2022/12/26 11:57:08;;;;;;;6.15;5.30;;;11.10;99.90;;;;;;5089157;28;20429;-59
2022/12/26 11:59:35;;;;;;;5.97;4.90;;;11.20;99.90;;;;;;5089425;28;20433;-60
2022/12/26 12:02:18;;;;;;;5.75;4.72;;;11.20;99.90;;;;;;5088828;28;20882;-59
2022/12/26 12:04:46;;;;;;;7.00;6.30;;;11.20;99.90;;;;;;5089075;28;20814;-58
2022/12/26 12:07:26;;;;;;;5.40;4.90;;;11.10;99.90;;;;;;5089153;28;20415;-60
2022/12/26 12:10:02;;;;;;;4.85;4.35;;;11.10;99.90;;;;;;5089366;28;20457;-59
2022/12/26 12:12:42;;;;;;;5.20;4.40;;;11.00;99.90;;;;;;5089414;28;20418;-59
2022/12/26 12:15:15;;;;;;;6.00;4.60;;;11.00;99.90;;;;;;5089412;28;20425;-59
2022/12/26 12:17:50;;;;;;;5.30;4.80;;;10.90;99.90;;;;;;5089342;28;20415;-59
2022/12/26 12:20:31;;;;;;;5.30;4.80;;;10.80;99.90;;;;;;5089175;28;20423;-58
2022/12/26 12:23:20;;;;;;;4.23;3.83;;;10.80;99.90;;;;;;5091167;28;20502;-60
2022/12/26 12:25:59;;;;;;;6.70;4.63;;;10.70;99.90;;;;;;5080601;28;20411;-59
2022/12/26 12:28:48;;;;;;;4.50;4.10;;;10.60;99.90;;;;;;5090020;28;20411;-60
2022/12/26 12:31:24;;;;;;;4.22;3.83;;;10.60;99.90;;;;;;5090638;28;20422;-59
2022/12/26 12:34:00;;;;;;;3.90;3.40;;;10.60;99.90;;;;;;5076494;28;20444;-63
2022/12/26 12:36:33;;;;;;;6.13;3.70;;;10.60;99.90;;;;;;5067272;28;20432;-60
2022/12/26 12:39:10;;;;;;;5.95;4.30;;;10.70;99.90;;;;;;5072876;28;20452;-60
2022/12/26 12:42:04;;;;;;;4.30;3.80;;;10.80;99.90;;;;;;5088487;28;20419;-60
2022/12/26 12:44:47;;;;;;;4.53;3.50;;;10.90;99.90;;;;;;5088535;28;20411;-60
2022/12/26 12:47:23;;;;;;;5.72;3.80;;;11.00;99.90;;;;;;5088618;28;20411;-60
2022/12/26 12:49:59;;;;;;;4.25;3.75;;;11.10;99.90;;;;;;5091921;28;20425;-60
2022/12/26 12:52:40;;;;;;;5.57;3.72;;;11.20;99.90;;;;;;5096091;28;20439;-60
2022/12/26 12:55:33;;;;;;;6.00;4.07;;;11.20;99.90;;;;;;5093061;28;20883;-59
2022/12/26 12:58:07;;;;;;;4.40;3.90;;;11.20;99.90;;;;;;5095404;28;20432;-60
2022/12/26 13:00:46;;;;;;;4.20;3.80;;;11.20;99.90;;;;;;5097875;28;20908;-61
2022/12/26 13:03:26;;;;;;;5.18;3.47;;;11.20;99.90;;;;;;5095924;28;20525;-60
2022/12/26 13:06:01;;;;;;;4.60;3.90;;;11.20;99.90;;;;;;5096460;28;20422;-61
2022/12/26 13:08:36;;;;;;;4.70;4.20;;;11.20;99.90;;;;;;5095656;28;20422;-60
2022/12/26 13:11:10;;;;;;;6.97;4.70;;;11.30;99.90;;;;;;5095342;28;20516;-61
2022/12/26 13:13:42;;;;;;;4.47;4.07;;;11.30;99.90;;;;;;5095495;28;20446;-61
2022/12/26 13:16:14;;;;;;;4.95;3.92;;;11.30;99.90;;;;;;5093167;28;20489;-60
2022/12/26 13:18:49;;;;;;;4.47;4.07;;;11.40;99.90;;;;;;5094852;28;20424;-61
2022/12/26 13:21:17;;;;;;;4.38;3.97;;;11.40;99.90;;;;;;5094848;28;20948;-61
2022/12/26 13:26:37;;;;;;;3.97;3.58;;;11.50;99.90;;;;;;5094632;28;20465;-59
2022/12/26 13:29:10;;;;;;;5.07;3.60;;;11.50;99.90;;;;;;5094333;28;20505;-61
2022/12/26 13:31:42;;;;;;;4.80;3.90;;;11.50;99.90;;;;;;5092257;28;20925;-60
2022/12/26 13:34:14;;;;;;;4.20;3.30;;;11.40;99.90;;;;;;5094251;28;20417;-60
2022/12/26 13:36:44;;;;;;;3.72;3.00;;;11.40;99.90;;;;;;5093334;28;20910;-59
2022/12/26 13:39:39;;;;;;;3.92;3.53;;;11.40;99.90;;;;;;5094735;28;20406;-60
2022/12/26 13:45:48;;;;;;;5.93;4.60;;;11.10;99.90;;;;;;5093866;28;20843;-61
2022/12/26 13:48:54;;;;;;;5.20;4.50;;;10.80;99.90;;;;;;5078723;28;20462;-61
2022/12/26 13:51:45;;;;;;;5.75;4.47;;;10.50;99.90;;;;;;5073580;28;20476;-60
2022/12/26 13:54:14;;;;;;;7.30;5.10;;;10.20;99.90;;;;;;5079641;28;20450;-60
2022/12/26 13:57:18;;;;;;;5.50;4.97;;;10.00;99.90;;;;;;5091354;28;20882;-59
2022/12/26 14:00:06;;;;;;;6.10;5.50;;;9.80;99.90;;;;;;5076234;28;20423;-60
2022/12/26 14:03:09;;;;;;;8.50;6.43;;;9.70;99.90;;;;;;5071644;28;20456;-61
2022/12/26 14:05:44;;;;;;;6.80;6.10;;;9.60;99.90;;;;;;5078307;28;20434;-60
2022/12/26 14:08:22;;;;;;;6.88;6.20;;;9.50;99.90;;;;;;5073420;28;20420;-59
2022/12/26 14:10:58;;;;;;;8.02;5.90;;;9.40;99.90;;;;;;5082596;28;20897;-60
2022/12/26 14:13:42;;;;;;;6.70;4.72;;;9.30;99.90;;;;;;5093220;28;20416;-61
2022/12/26 14:16:16;;;;;;;6.75;4.72;;;9.20;99.90;;;;;;5093739;28;20435;-59
2022/12/26 14:18:49;;;;;;;4.80;3.85;;;9.10;99.90;;;;;;5093502;28;20413;-60
2022/12/26 14:21:49;;;;;;;7.22;4.40;;;9.00;99.90;;;;;;5092785;28;20946;-62
2022/12/26 14:24:26;;;;;;;4.68;3.50;;;9.00;99.90;;;;;;5093096;28;20414;-61
2022/12/26 14:27:00;;;;;;;3.50;3.20;;;8.90;99.90;;;;;;5094267;28;20418;-63
2022/12/26 14:29:34;;;;;;;4.28;3.65;;;8.80;99.90;;;;;;5093450;28;20413;-61
2022/12/26 14:32:22;;;;;;;4.35;3.63;;;8.70;99.90;;;;;;5093449;28;20406;-62
2022/12/26 14:35:02;;;;;;;4.10;2.80;;;8.70;99.90;;;;;;5093582;28;20421;-62
2022/12/26 14:37:43;;;;;;;3.95;2.10;;;8.60;99.90;;;;;;5095432;28;20449;-61
2022/12/26 14:40:35;;;;;;;4.38;1.90;;;8.50;99.90;;;;;;5095623;28;20436;-61
2022/12/26 14:43:25;;;;;;;6.75;2.15;;;8.40;99.90;;;;;;5077530;28;20428;-61
2022/12/26 14:45:53;;;;;;;4.90;2.38;;;8.30;99.90;;;;;;5097268;28;20420;-60
2022/12/26 14:48:49;;;;;;;4.00;2.00;;;8.20;99.90;;;;;;5097160;28;20493;-60
2022/12/26 14:51:43;;;;;;;5.35;2.20;;;8.20;99.90;;;;;;5096306;28;20754;-60
2022/12/26 14:54:32;;;;;;;5.65;1.70;;;8.20;99.90;;;;;;5096673;28;20410;-60
2022/12/26 14:56:59;;;;;;;4.50;1.70;;;8.00;99.90;;;;;;5093176;28;20429;-59
2022/12/26 14:59:29;;;;;;;5.07;1.60;;;7.90;99.90;;;;;;5096601;28;20410;-59
2022/12/26 15:02:10;;;;;;;5.95;2.10;;;7.80;99.90;;;;;;5095978;28;20823;-60
2022/12/26 15:05:10;;;;;;;3.65;1.55;;;7.80;99.90;;;;;;5094758;28;20856;-60
2022/12/26 15:08:05;;;;;;;5.70;2.00;;;7.70;99.90;;;;;;5096046;28;20428;-59
2022/12/26 15:10:59;;;;;;;5.07;1.50;;;7.60;99.90;;;;;;5046979;28;20406;-61
2022/12/26 15:14:01;;;;;;;9.68;1.70;;;7.50;99.90;;;;;;5096796;28;20471;-62
2022/12/26 15:16:50;;;;;;;5.82;1.50;;;7.40;99.90;;;;;;5095099;28;20877;-59
2022/12/26 15:19:45;;;;;;;7.20;1.80;;;7.30;99.90;;;;;;5092759;28;20913;-61
2022/12/26 15:23:00;;;;;;;6.03;1.43;;;7.20;99.90;;;;;;5088802;28;20501;-60